Hidden Valley, Valles Caldera, New Mexico Weather observations

Data are for 10 minute period ending at time listed.
 Day   Time   Solar   Ave.   Ave.  Ave.  Vector  Max.   Baro.   Total    
  of    of     Rad.   Air    Rel.  Wind   Wind   Wind  Press.  Precip.   
Year   Day            Temp.  Hum.  Speed  Dir.   Gust                    
2015   (MST)  Kw/m2    F      %     mph   deg.    mph    mb.     in.     
-------------------------------------------------------------------------
  88    5:30   0.00   23.1    82    0.4   156     1.8   750.4    0.00 
  88    5:40   0.00   22.3    81    0.4   107     0.9   750.5    0.00 
  88    5:50   0.00   21.4    87    0.3   353     1.1   750.7    0.00 
  88    6:00   0.00   21.8    89    1.0   186     2.2   750.7    0.00 
  88    6:10   0.01   24.1    79    0.3   173     1.9   750.8    0.00 
  88    6:20   0.01   23.4    84    0.4   207     1.4   750.9    0.00 
  88    6:30   0.02   24.3    80    0.9     9     2.1   750.9    0.00 
  88    6:40   0.10   23.4    84    0.5    58     1.3   751.1    0.00 
  88    6:50   0.14   26.7    80    0.8   352     1.7   751.2    0.00 
  88    7:00   0.18   30.7    72    0.3    86     1.1   751.2    0.00 
  88    7:10   0.21   32.8    67    0.6   188     1.5   751.2    0.00 
  88    7:20   0.25   35.4    61    0.3   126     1.0   751.2    0.00 
  88    7:30   0.29   39.1    51    0.9    40     1.9   751.3    0.00 
  88    7:40   0.33   41.7    44    1.1    42     1.9   751.4    0.00 
  88    7:50   0.36   44.2    37    0.9    56     1.4   751.4    0.00 
  88    8:00   0.40   46.0    34    0.9    62     1.8   751.5    0.00 
  88    8:10   0.44   48.8    33    0.2   102     1.0   751.5    0.00 
  88    8:20   0.47   50.6    30    0.6   200     1.6   751.6    0.00 
  88    8:30   0.51   52.2    29    0.8   186     1.9   751.6    0.00 
  88    8:40   0.55   55.7    24    0.7   105     1.8   751.6    0.00 
  88    8:50   0.58   57.3    22    1.9   324     4.3   751.5    0.00 
  88    9:00   0.61   58.0    20    4.0   351     6.5   751.5    0.00 
  88    9:10   0.64   58.2    21    3.5     9     6.2   751.6    0.00 
  88    9:20   0.67   58.7    21    3.0    31     5.3   751.5    0.00 
  88    9:30   0.70   58.2    21    3.4    46     5.2   751.5    0.00 
  88    9:40   0.73   58.5    20    2.5    69     5.3   751.5    0.00 
  88    9:50   0.76   59.2    20    1.8    75     3.9   751.4    0.00 
  88   10:00   0.78   60.5    18    1.0   304     2.0   751.5    0.00 
  88   10:10   0.81   61.3    19    1.9     4     3.7   751.5    0.00 
  88   10:20   0.83   61.3    17    1.7   332     7.9   751.5    0.00 
  88   10:30   0.84   59.8    15    3.0   272     7.0   751.4    0.00 
  88   10:40   0.87   60.3    16    2.0    21     5.3   751.4    0.00 
  88   10:50   0.89   60.8    16    3.1   263     6.3   751.4    0.00 
  88   11:00   0.91   60.7    15    1.8   233     5.1   751.3    0.00 
  88   11:10   0.90   61.8    17    2.1     7     5.7   751.2    0.00 
  88   11:20   0.83   60.5    16    2.7   324     5.3   751.2    0.00 
  88   11:30   0.81   61.8    18    1.6    69     4.1   751.1    0.00 
  88   11:40   0.93   61.8    17    3.3   324     6.5   751.1    0.00 
  88   11:50   0.96   61.5    16    2.8   180     6.3   751.1    0.00 
  88   12:00   0.49   60.6    19    3.5   211     8.8   751.0    0.00 
  88   12:10   0.85   59.7    23    4.1   154     6.9   751.0    0.00 
  88   12:20   0.75   59.9    23    3.9   160     9.7   751.0    0.00 
  88   12:30   0.89   60.3    23    4.2   176     6.9   750.9    0.00 
  88   12:40   0.81   60.4    23    3.4   152     6.4   750.8    0.00 
  88   12:50   0.56   60.7    22    3.1   120     5.5   750.7    0.00 
  88   13:00   0.77   60.4    23    4.1   156     7.9   750.5    0.00 
  88   13:10   0.87   61.4    20    3.4   150     6.7   750.3    0.00 
  88   13:20   0.98   62.5    20    4.0   161     7.8   750.2    0.00 
  88   13:30   0.94   61.8    20    4.1   163     8.3   750.1    0.00 
  88   13:40   1.04   63.2    18    5.6   194    10.0   749.9    0.00 
  88   13:50   0.96   63.5    17    4.8   184     9.9   749.8    0.00 
  88   14:00   0.41   61.4    18    5.3   188     9.1   749.7    0.00 
  88   14:10   0.84   62.0    17    4.7   200     8.7   749.7    0.00 
  88   14:20   0.89   62.7    17    4.1   183     8.1   749.6    0.00 
  88   14:30   0.67   62.6    18    4.1   197     7.5   749.5    0.00 
  88   14:40   0.26   61.1    17    3.2   147     7.2   749.4    0.00 
  88   14:50   0.19   60.5    16    3.2   235     6.8   749.3    0.00 
  88   15:00   0.37   60.7    16    2.3   234     4.6   749.4    0.00 
  88   15:10   0.68   63.4    16    2.2   220     5.8   749.4    0.00 
  88   15:20   0.41   61.8    16    3.3   220     7.6   749.3    0.00 
  88   15:30   0.40   61.9    16    2.9   228     7.7   749.2    0.00 
  88   15:40   0.70   63.2    15    3.4   204     8.4   749.0    0.00 
  88   15:50   0.66   63.7    15    4.3   230     8.9   749.0    0.00 
  88   16:00   0.57   62.7    14    4.6   218     8.9   749.0    0.00 
  88   16:10   0.49   62.1    15    5.3   202     9.5   749.0    0.00 
  88   16:20   0.51   62.6    15    3.8   196     7.7   749.1    0.00 
  88   16:30   0.42   61.6    14    5.5   215    10.3   749.0    0.01 
  88   16:40   0.33   61.3    15    3.9   217     7.6   749.1    0.00 
  88   16:50   0.33   61.5    14    3.0   235     7.3   749.2    0.00 
  88   17:00   0.34   61.4    15    4.1   212     8.2   749.3    0.00 
  88   17:10   0.22   61.5    14    1.8   245     3.8   749.4    0.00 
  88   17:20   0.07   59.2    15    1.9   232     3.8   749.5    0.00 
  88   17:30   0.05   57.5    17    1.8   224     2.7   749.6    0.00 
  88   17:40   0.04   55.3    22    1.5   244     2.5   749.7    0.00 
  88   17:50   0.03   52.3    28    1.6   241     2.2   749.8    0.00 
  88   18:00   0.03   50.6    30    1.6   225     2.1   749.9    0.00 
  88   18:10   0.02   49.6    33    2.3   223     3.0   750.1    0.00 
  88   18:20   0.01   48.3    37    1.1   218     1.9   750.1    0.00 
  88   18:30   0.00   51.8    26    4.4   248    12.3   750.2    0.00 
  88   18:40   0.00   55.6    19    6.3   310    11.0   750.3    0.00 
  88   18:50   0.00   55.4    20    5.5   288    10.1   750.4    0.00 
  88   19:00   0.00   54.2    26    3.3   104     7.5   750.9    0.00 
  88   19:10   0.00   53.2    29    2.6   154     5.9   751.0    0.00 
  88   19:20   0.00   53.0    30    3.1   154     6.4   751.2    0.00 
  88   19:30   0.00   52.5    32    3.9   133     6.8   751.4    0.00 
  88   19:40   0.00   52.2    32    3.5   148     7.2   751.4    0.00 
  88   19:50   0.00   52.0    34    5.2   148     9.1   751.5    0.00 
  88   20:00   0.00   50.9    38    4.9   148     8.0   751.5    0.00 
  88   20:10   0.00   50.3    40    5.8   151     9.3   751.3    0.00 
  88   20:20   0.00   50.1    41    4.9   161     9.5   751.6    0.00 
  88   20:30   0.00   50.1    41    6.1   166    11.2   751.6    0.00 
  88   20:40   0.00   49.9    42    6.7   176    11.1   751.7    0.00 
  88   20:50   0.00   49.9    41    6.5   170     9.6   751.8    0.00 
  88   21:00   0.00   49.7    41    5.1   175     8.0   751.9    0.00 
  88   21:10   0.00   49.2    43    4.2   193     6.7   752.1    0.00 
  88   21:20   0.00   48.9    43    2.8   182     5.2   752.3    0.00 
  88   21:30   0.00   48.5    44    3.5   190     6.1   752.4    0.00 
  88   21:40   0.00   47.7    45    2.9   192     5.4   752.5    0.00 
  88   21:50   0.00   47.6    44    3.0   208     5.4   752.5    0.00 
  88   22:00   0.00   47.2    44    2.6   201     5.2   752.5    0.00 
  88   22:10   0.00   46.7    44    2.1   188     3.7   752.5    0.00 
  88   22:20   0.00   46.1    44    1.8   208     3.6   752.5    0.00 
  88   22:30   0.00   46.0    44    1.9   206     4.5   752.4    0.00 
  88   22:40   0.00   45.9    43    1.9   173     5.3   752.4    0.00 
  88   22:50   0.00   46.1    42    2.2   176     4.3   752.3    0.00 
  88   23:00   0.00   46.0    42    2.3   185     6.3   752.3    0.00 
  88   23:10   0.00   45.1    43    1.0   226     3.1   752.4    0.00 
  88   23:20   0.00   43.3    47    1.0   331     2.2   752.4    0.00 
  88   23:30   0.00   42.9    47    1.7   212     4.6   752.4    0.00 
  88   23:40   0.00   44.4    42    2.6   196     6.5   752.3    0.00 
  88   23:50   0.00   44.6    40    2.5   220     8.8   752.3    0.00 
  89    0:00   0.00   43.7    42    1.6   290     3.4   752.3    0.00 
  89    0:10   0.00   42.9    42    1.3   257     2.9   752.3    0.00 
  89    0:20   0.00   41.8    45    1.2   255     2.6   752.4    0.00 
  89    0:30   0.00   40.2    49    1.3   273     2.8   752.4    0.00 
  89    0:40   0.00   39.6    49    1.1     9     3.0   752.3    0.00 
  89    0:50   0.00   38.8    52    1.1   304     3.2   752.2    0.00 
  89    1:00   0.00   40.4    46    1.0   274     2.6   752.1    0.00 
  89    1:10   0.00   39.4    50    0.8   314     1.8   752.1    0.00 
  89    1:20   0.00   36.5    57    0.9   275     2.1   752.0    0.00 
  89    1:30   0.00   38.8    50    1.7   270     3.4   751.9    0.00 
  89    1:40   0.00   39.3    48    0.8   197     2.2   751.8    0.00 
  89    1:50   0.00   35.2    55    0.7    75     1.4   751.9    0.00 
  89    2:00   0.00   32.6    62    0.2    95     0.7   751.9    0.00 
  89    2:10   0.00   30.4    69    0.9   358     1.5   751.8    0.00 
  89    2:20   0.00   28.6    74    0.7    75     1.3   751.7    0.00 
  89    2:30   0.00   28.3    76    0.8    31     1.5   751.7    0.00 
  89    2:40   0.00   27.0    80    0.4    19     1.5   751.6    0.00 
  89    2:50   0.00   26.0    83    0.2   319     0.8   751.5    0.00 
  89    3:00   0.00   25.7    81    0.3   102     0.9   751.5    0.00 
  89    3:10   0.00   24.6    86    0.2    20     1.1   751.4    0.00 
  89    3:20   0.00   24.1    89    0.8   336     3.4   751.4    0.00 
  89    3:30   0.00   24.3    87    0.1   284     0.7   751.4    0.00 
  89    3:40   0.00   23.6    89    0.5    90     1.5   751.4    0.00 
  89    3:50   0.00   23.7    90    0.5    90     1.8   751.3    0.00 
  89    4:00   0.00   23.3    90    0.6   335     1.3   751.4    0.00 
  89    4:10   0.00   23.2    87    0.6     4     1.3   751.4    0.00 
  89    4:20   0.00   22.6    89    0.5    98     1.5   751.4    0.00 
  89    4:30   0.00   22.6    90    0.1   200     0.5   751.5    0.00 
  89    4:40   0.00   21.7    90    0.3    21     0.8   751.4    0.00 
  89    4:50   0.00   21.5    93    0.6   314     1.2   751.5    0.00 
  89    5:00   0.00   20.3    90    0.6    20     1.1   751.5    0.00 
  89    5:10   0.00   18.9    92    0.2    94     0.7   751.5    0.00 
  89    5:20   0.00   19.6    95    0.1   350     0.7   751.6    0.00 

Return to Hidden Valley, Valles Caldera graphs page.


Western Regional Climate Center,wrcc@dri.edu